Allagash, Maine
Current Conditions -  °F | °C
As of 3:53 AM on Wednesday 28 Jan 2015 (Local Time) from KFVE Reporting Station
Light Snow Light Snow  
Wind Chill: -23°   Ceiling: 4400
Heat Index: -13°   Visibility: 5mi
Dew Point: -17°   Wind: 17mph
Humidity: 76%   Direction: 360°N
Pressure: 29.77"   Gusts: 23mph
Location:  47.1951°N, 69.2728°W
Report Text: KFVE 280853Z AUTO 36015G20KT 5SM -SN OVC044 M13/M17 A2977 RMK AO2 SLP102 P0000 60000 T11331167 53006
Loading
Personal Weather Stations






























Interactive Weather Map New forecast layout! Learn more

10-Day Weather Forecast

Advertisements
Track Severe Weather on mobile